Carson, Iowa
Current Conditions -  °F | °C
As of 1:55 AM on Wednesday 26 Nov 2014 (Local Time) from KRDK Reporting Station
Light Snow Light Snow  
Wind Chill: 25°   Ceiling: 300
Heat Index: 34°   Visibility: 1.2mi
Dew Point: 32°   Wind: 12mph
Humidity: 93%   Direction: 170°S
Pressure: 29.86"   Gusts: NA
Location:  41.24°N, 95.42°W
Report Text: KRDK 260755Z AUTO 17010KT 1 1/4SM -SN OVC003 01/00 A2986 RMK AO2 P0002
Loading
Personal Weather Stations






























Interactive Weather Map New forecast layout! Learn more

10-Day Weather Forecast

Advertisements
Track Severe Weather on mobile